Briefing drone pour Veauche

Rechercher une autre localisation

Conditions de vol :


Nous sommes le : Dimanche 19 septembre 2021
Il est 10:41 UTC (12:41 LT)

Lever de soleil : 04:59 UTC (06:59 LT)
Coucher de soleil : 18:13 UTC (20:13 LT)

Météo

L'essentiel des conditions de vol

VIGILANCE MÉTÉO FRANCE - Loire (42)
Pas de vigilances particulieres
CARTES DES FRONTS
METAR de LFMH
LFMH 191030Z AUTO 29008KT 250V330 9999 -RA SCT030/// BKN040/// BKN052/// ///TCU 15/10 Q1017

Date d'émission: 19/09/2021
Heure d'émission: 10:30 UTC
Vent: 290° (variable du 250° au 330°) pour 8 KT (15 km/h)
Visibilité horizontale: > 10 km
Plafond :
- Nuages épars à 3000ft (914m)
- Nuages morcelés à 4000ft (1219m)
- Nuages morcelés à 5200ft (1585m)
Température: 15 °C
Point de rosée: 10 °C
Humidité: 72%
Pression (QNH): 1017 hPa
Conditions: Faible pluie
TAF de LFMH
LFMH 161901Z 1619/1712 CNL

Conditions prévues :

Heure d'émission : Bulletin éffectué le 16 à 19:00 UTC
Prévision : Valide du 16 a 19:00 UTC au 17 a 12:00 UTC
Nuages : à 0ft (0 m)
WEBCAM POUR VEAUCHE

Réglementation

Voler en sécurité

CARTES AERONAUTIQUE 1/500.000
CARTES VAC (LFMH)
SUP AIP




Chargement des AIP...
NOTAM (VEAUCHE + Terrain à proximité / FIR )




Chargement des NOTAMS...
CONTACT PREFECTURE 42


Avertissement : Les données mises à disposition sont indicatives. Oxygène Drone ne pourra être tenu responsable de dégâts causés aux biens et aux personnes.